sensor_id;sensor_type;location;lat;lon;timestamp;pressure;altitude;pressure_sealevel;temperature;humidity
50065;BME280;64524;47.848;-122.338;2022-11-15T00:01:29;102727.64;;;8.95;100.00
50065;BME280;64524;47.848;-122.338;2022-11-15T00:03:58;102727.89;;;8.82;100.00
50065;BME280;64524;47.848;-122.338;2022-11-15T00:06:26;102725.45;;;8.72;100.00
50065;BME280;64524;47.848;-122.338;2022-11-15T00:08:58;102732.10;;;8.60;100.00
50065;BME280;64524;47.848;-122.338;2022-11-15T00:11:30;102728.48;;;8.47;100.00
50065;BME280;64524;47.848;-122.338;2022-11-15T00:13:58;102729.55;;;8.35;100.00
50065;BME280;64524;47.848;-122.338;2022-11-15T00:16:30;102733.57;;;8.23;100.00
50065;BME280;64524;47.848;-122.338;2022-11-15T00:18:59;102728.89;;;8.10;100.00
50065;BME280;64524;47.848;-122.338;2022-11-15T00:21:27;102726.48;;;7.97;100.00
50065;BME280;64524;47.848;-122.338;2022-11-15T00:23:57;102728.75;;;7.84;100.00
50065;BME280;64524;47.848;-122.338;2022-11-15T00:26:26;102724.88;;;7.74;100.00
50065;BME280;64524;47.848;-122.338;2022-11-15T00:28:55;102727.45;;;7.64;100.00
50065;BME280;64524;47.848;-122.338;2022-11-15T00:31:23;102724.55;;;7.52;100.00
50065;BME280;64524;47.848;-122.338;2022-11-15T00:33:56;102727.05;;;7.42;100.00
50065;BME280;64524;47.848;-122.338;2022-11-15T00:36:24;102728.66;;;7.33;100.00
50065;BME280;64524;47.848;-122.338;2022-11-15T00:38:53;102730.91;;;7.27;100.00
50065;BME280;64524;47.848;-122.338;2022-11-15T00:41:22;102731.90;;;7.24;100.00
50065;BME280;64524;47.848;-122.338;2022-11-15T00:43:53;102731.20;;;7.21;100.00
50065;BME280;64524;47.848;-122.338;2022-11-15T00:46:22;102730.98;;;7.17;100.00
50065;BME280;64524;47.848;-122.338;2022-11-15T00:48:50;102726.95;;;7.13;100.00
50065;BME280;64524;47.848;-122.338;2022-11-15T00:51:19;102729.52;;;7.06;100.00
50065;BME280;64524;47.848;-122.338;2022-11-15T00:53:48;102722.21;;;6.99;100.00
50065;BME280;64524;47.848;-122.338;2022-11-15T00:56:19;102721.85;;;6.93;100.00
50065;BME280;64524;47.848;-122.338;2022-11-15T00:58:47;102721.00;;;6.87;100.00
50065;BME280;64524;47.848;-122.338;2022-11-15T01:01:16;102722.97;;;6.80;100.00
50065;BME280;64524;47.848;-122.338;2022-11-15T01:03:45;102724.36;;;6.71;100.00
50065;BME280;64524;47.848;-122.338;2022-11-15T01:06:17;102727.17;;;6.63;100.00
50065;BME280;64524;47.848;-122.338;2022-11-15T01:08:45;102724.77;;;6.55;100.00
50065;BME280;64524;47.848;-122.338;2022-11-15T01:11:14;102731.27;;;6.48;100.00
50065;BME280;64524;47.848;-122.338;2022-11-15T01:13:43;102734.73;;;6.43;100.00
50065;BME280;64524;47.848;-122.338;2022-11-15T01:16:18;102735.66;;;6.39;100.00
50065;BME280;64524;47.848;-122.338;2022-11-15T01:18:47;102733.67;;;6.34;100.00
50065;BME280;64524;47.848;-122.338;2022-11-15T01:21:18;102739.83;;;6.30;100.00
50065;BME280;64524;47.848;-122.338;2022-11-15T01:23:53;102739.66;;;6.25;100.00
50065;BME280;64524;47.848;-122.338;2022-11-15T01:26:23;102742.98;;;6.18;100.00
50065;BME280;64524;47.848;-122.338;2022-11-15T01:28:52;102746.61;;;6.12;100.00
50065;BME280;64524;47.848;-122.338;2022-11-15T01:31:21;102748.86;;;6.07;100.00
50065;BME280;64524;47.848;-122.338;2022-11-15T01:33:50;102748.88;;;6.02;100.00
50065;BME280;64524;47.848;-122.338;2022-11-15T01:36:21;102745.73;;;5.96;100.00
50065;BME280;64524;47.848;-122.338;2022-11-15T01:38:55;102748.45;;;5.90;100.00
50065;BME280;64524;47.848;-122.338;2022-11-15T01:41:27;102751.61;;;5.85;100.00
50065;BME280;64524;47.848;-122.338;2022-11-15T01:44:38;102752.39;;;5.81;100.00
50065;BME280;64524;47.848;-122.338;2022-11-15T01:47:23;102753.35;;;5.74;100.00
50065;BME280;64524;47.848;-122.338;2022-11-15T01:50:06;102755.85;;;5.71;100.00
50065;BME280;64524;47.848;-122.338;2022-11-15T01:52:42;102759.52;;;5.69;100.00
50065;BME280;64524;47.848;-122.338;2022-11-15T01:55:21;102763.19;;;5.70;100.00
50065;BME280;64524;47.848;-122.338;2022-11-15T01:57:55;102771.07;;;5.75;100.00
50065;BME280;64524;47.848;-122.338;2022-11-15T02:00:26;102772.69;;;5.79;100.00
50065;BME280;64524;47.848;-122.338;2022-11-15T02:02:55;102777.52;;;5.84;100.00
50065;BME280;64524;47.848;-122.338;2022-11-15T02:05:24;102777.69;;;5.87;100.00
50065;BME280;64524;47.848;-122.338;2022-11-15T02:07:53;102776.96;;;5.89;100.00
50065;BME280;64524;47.848;-122.338;2022-11-15T02:10:23;102775.52;;;5.90;100.00
50065;BME280;64524;47.848;-122.338;2022-11-15T02:12:53;102776.10;;;5.92;100.00
50065;BME280;64524;47.848;-122.338;2022-11-15T02:15:24;102781.01;;;5.93;100.00
50065;BME280;64524;47.848;-122.338;2022-11-15T02:20:58;102787.33;;;5.92;100.00
50065;BME280;64524;47.848;-122.338;2022-11-15T02:29:27;102788.29;;;5.81;100.00
50065;BME280;64524;47.848;-122.338;2022-11-15T02:37:39;102791.91;;;5.65;100.00
50065;BME280;64524;47.848;-122.338;2022-11-15T02:42:54;102790.29;;;5.48;100.00
50065;BME280;64524;47.848;-122.338;2022-11-15T02:45:51;102788.48;;;5.38;100.00
50065;BME280;64524;47.848;-122.338;2022-11-15T02:48:22;102787.70;;;5.32;100.00
50065;BME280;64524;47.848;-122.338;2022-11-15T02:50:53;102788.10;;;5.25;100.00
50065;BME280;64524;47.848;-122.338;2022-11-15T02:53:25;102796.88;;;5.20;100.00
50065;BME280;64524;47.848;-122.338;2022-11-15T02:55:55;102803.18;;;5.16;100.00
50065;BME280;64524;47.848;-122.338;2022-11-15T03:04:23;102816.23;;;5.14;100.00
50065;BME280;64524;47.848;-122.338;2022-11-15T03:07:35;102818.70;;;5.10;100.00
50065;BME280;64524;47.848;-122.338;2022-11-15T03:10:16;102818.84;;;5.02;100.00
50065;BME280;64524;47.848;-122.338;2022-11-15T03:16:29;102827.73;;;4.86;100.00
50065;BME280;64524;47.848;-122.338;2022-11-15T03:19:34;102834.03;;;4.80;100.00
50065;BME280;64524;47.848;-122.338;2022-11-15T03:22:04;102836.95;;;4.75;100.00
50065;BME280;64524;47.848;-122.338;2022-11-15T03:24:36;102837.25;;;4.72;100.00
50065;BME280;64524;47.848;-122.338;2022-11-15T03:27:07;102843.90;;;4.69;100.00
50065;BME280;64524;47.848;-122.338;2022-11-15T03:29:39;102848.60;;;4.65;100.00
50065;BME280;64524;47.848;-122.338;2022-11-15T03:32:17;102857.25;;;4.60;100.00
50065;BME280;64524;47.848;-122.338;2022-11-15T03:35:08;102861.36;;;4.56;100.00
50065;BME280;64524;47.848;-122.338;2022-11-15T03:38:11;102859.94;;;4.52;100.00
50065;BME280;64524;47.848;-122.338;2022-11-15T03:41:08;102863.39;;;4.48;100.00
50065;BME280;64524;47.848;-122.338;2022-11-15T03:46:34;102864.39;;;4.40;100.00
50065;BME280;64524;47.848;-122.338;2022-11-15T03:49:13;102866.73;;;4.37;100.00
50065;BME280;64524;47.848;-122.338;2022-11-15T03:51:43;102872.17;;;4.34;100.00
50065;BME280;64524;47.848;-122.338;2022-11-15T03:54:12;102869.42;;;4.31;100.00
50065;BME280;64524;47.848;-122.338;2022-11-15T03:56:41;102874.76;;;4.29;100.00
50065;BME280;64524;47.848;-122.338;2022-11-15T03:59:10;102877.15;;;4.27;100.00
50065;BME280;64524;47.848;-122.338;2022-11-15T04:01:38;102878.42;;;4.25;100.00
50065;BME280;64524;47.848;-122.338;2022-11-15T04:04:07;102877.76;;;4.23;100.00
50065;BME280;64524;47.848;-122.338;2022-11-15T04:06:36;102876.69;;;4.22;100.00
50065;BME280;64524;47.848;-122.338;2022-11-15T04:09:05;102876.98;;;4.22;100.00
50065;BME280;64524;47.848;-122.338;2022-11-15T04:11:33;102876.27;;;4.21;100.00
50065;BME280;64524;47.848;-122.338;2022-11-15T04:14:02;102876.81;;;4.22;100.00
50065;BME280;64524;47.848;-122.338;2022-11-15T04:16:31;102879.10;;;4.22;100.00
50065;BME280;64524;47.848;-122.338;2022-11-15T04:18:59;102877.84;;;4.24;100.00
50065;BME280;64524;47.848;-122.338;2022-11-15T04:21:46;102876.73;;;4.26;100.00
50065;BME280;64524;47.848;-122.338;2022-11-15T04:24:32;102875.74;;;4.26;100.00
50065;BME280;64524;47.848;-122.338;2022-11-15T04:27:01;102877.86;;;4.27;100.00
50065;BME280;64524;47.848;-122.338;2022-11-15T04:29:30;102875.05;;;4.28;100.00
50065;BME280;64524;47.848;-122.338;2022-11-15T04:32:06;102869.58;;;4.29;100.00
50065;BME280;64524;47.848;-122.338;2022-11-15T04:34:36;102876.39;;;4.30;100.00
50065;BME280;64524;47.848;-122.338;2022-11-15T04:37:06;102875.51;;;4.30;100.00
50065;BME280;64524;47.848;-122.338;2022-11-15T04:39:41;102879.71;;;4.29;100.00
50065;BME280;64524;47.848;-122.338;2022-11-15T04:42:11;102876.95;;;4.29;100.00
50065;BME280;64524;47.848;-122.338;2022-11-15T04:44:40;102879.91;;;4.29;100.00
50065;BME280;64524;47.848;-122.338;2022-11-15T04:47:08;102884.13;;;4.31;100.00
50065;BME280;64524;47.848;-122.338;2022-11-15T04:49:37;102885.52;;;4.31;100.00
50065;BME280;64524;47.848;-122.338;2022-11-15T04:52:06;102884.17;;;4.31;100.00
50065;BME280;64524;47.848;-122.338;2022-11-15T04:54:35;102887.86;;;4.30;100.00
50065;BME280;64524;47.848;-122.338;2022-11-15T04:57:04;102885.70;;;4.29;100.00
50065;BME280;64524;47.848;-122.338;2022-11-15T04:59:32;102885.52;;;4.28;100.00
50065;BME280;64524;47.848;-122.338;2022-11-15T05:02:01;102889.46;;;4.26;100.00
50065;BME280;64524;47.848;-122.338;2022-11-15T05:04:30;102889.80;;;4.26;100.00
50065;BME280;64524;47.848;-122.338;2022-11-15T05:06:59;102889.58;;;4.26;100.00
50065;BME280;64524;47.848;-122.338;2022-11-15T05:09:28;102892.59;;;4.24;100.00
50065;BME280;64524;47.848;-122.338;2022-11-15T05:11:56;102895.18;;;4.22;100.00
50065;BME280;64524;47.848;-122.338;2022-11-15T05:14:25;102898.17;;;4.20;100.00
50065;BME280;64524;47.848;-122.338;2022-11-15T05:16:54;102904.23;;;4.19;100.00
50065;BME280;64524;47.848;-122.338;2022-11-15T05:19:23;102900.30;;;4.17;100.00
50065;BME280;64524;47.848;-122.338;2022-11-15T05:21:51;102902.45;;;4.16;100.00
50065;BME280;64524;47.848;-122.338;2022-11-15T05:24:20;102902.73;;;4.15;100.00
50065;BME280;64524;47.848;-122.338;2022-11-15T05:26:48;102903.55;;;4.14;100.00
50065;BME280;64524;47.848;-122.338;2022-11-15T05:29:17;102906.20;;;4.13;100.00
50065;BME280;64524;47.848;-122.338;2022-11-15T05:31:46;102907.54;;;4.13;100.00
50065;BME280;64524;47.848;-122.338;2022-11-15T05:34:15;102911.52;;;4.13;100.00
50065;BME280;64524;47.848;-122.338;2022-11-15T05:36:45;102914.04;;;4.15;100.00
50065;BME280;64524;47.848;-122.338;2022-11-15T05:39:14;102916.20;;;4.16;100.00
50065;BME280;64524;47.848;-122.338;2022-11-15T05:41:48;102914.16;;;4.16;100.00
50065;BME280;64524;47.848;-122.338;2022-11-15T05:44:22;102913.10;;;4.16;100.00
50065;BME280;64524;47.848;-122.338;2022-11-15T05:46:52;102912.98;;;4.16;100.00
50065;BME280;64524;47.848;-122.338;2022-11-15T05:49:26;102917.30;;;4.17;100.00
50065;BME280;64524;47.848;-122.338;2022-11-15T05:51:57;102917.61;;;4.17;100.00
50065;BME280;64524;47.848;-122.338;2022-11-15T05:54:26;102922.13;;;4.17;100.00
50065;BME280;64524;47.848;-122.338;2022-11-15T05:56:54;102923.34;;;4.20;100.00
50065;BME280;64524;47.848;-122.338;2022-11-15T05:59:25;102925.62;;;4.23;100.00
50065;BME280;64524;47.848;-122.338;2022-11-15T06:01:54;102925.66;;;4.23;100.00
50065;BME280;64524;47.848;-122.338;2022-11-15T06:04:23;102924.77;;;4.23;100.00
50065;BME280;64524;47.848;-122.338;2022-11-15T06:06:51;102924.56;;;4.23;100.00
50065;BME280;64524;47.848;-122.338;2022-11-15T06:09:21;102927.15;;;4.22;100.00
50065;BME280;64524;47.848;-122.338;2022-11-15T06:11:49;102930.55;;;4.22;100.00
50065;BME280;64524;47.848;-122.338;2022-11-15T06:14:18;102931.32;;;4.19;100.00
50065;BME280;64524;47.848;-122.338;2022-11-15T06:16:47;102930.48;;;4.15;100.00
50065;BME280;64524;47.848;-122.338;2022-11-15T06:19:15;102931.02;;;4.10;100.00
50065;BME280;64524;47.848;-122.338;2022-11-15T06:21:44;102930.96;;;4.05;100.00
50065;BME280;64524;47.848;-122.338;2022-11-15T06:24:13;102931.05;;;4.01;100.00
50065;BME280;64524;47.848;-122.338;2022-11-15T06:26:42;102931.75;;;3.96;100.00
50065;BME280;64524;47.848;-122.338;2022-11-15T06:29:10;102929.17;;;3.94;100.00
50065;BME280;64524;47.848;-122.338;2022-11-15T06:31:39;102934.78;;;3.91;100.00
50065;BME280;64524;47.848;-122.338;2022-11-15T06:34:08;102937.17;;;3.89;100.00
50065;BME280;64524;47.848;-122.338;2022-11-15T06:36:37;102937.88;;;3.87;100.00
50065;BME280;64524;47.848;-122.338;2022-11-15T06:39:05;102937.36;;;3.84;100.00
50065;BME280;64524;47.848;-122.338;2022-11-15T06:41:35;102940.45;;;3.82;100.00
50065;BME280;64524;47.848;-122.338;2022-11-15T06:44:03;102943.19;;;3.79;100.00
50065;BME280;64524;47.848;-122.338;2022-11-15T06:46:32;102943.90;;;3.78;100.00
50065;BME280;64524;47.848;-122.338;2022-11-15T06:49:01;102941.31;;;3.77;100.00
50065;BME280;64524;47.848;-122.338;2022-11-15T06:51:35;102938.97;;;3.78;100.00
50065;BME280;64524;47.848;-122.338;2022-11-15T06:54:04;102938.65;;;3.78;100.00
50065;BME280;64524;47.848;-122.338;2022-11-15T06:56:33;102933.77;;;3.77;100.00
50065;BME280;64524;47.848;-122.338;2022-11-15T06:59:03;102935.96;;;3.77;100.00
50065;BME280;64524;47.848;-122.338;2022-11-15T07:01:32;102939.13;;;3.76;100.00
50065;BME280;64524;47.848;-122.338;2022-11-15T07:04:01;102939.80;;;3.75;100.00
50065;BME280;64524;47.848;-122.338;2022-11-15T07:06:30;102936.64;;;3.75;100.00
50065;BME280;64524;47.848;-122.338;2022-11-15T07:08:58;102932.01;;;3.74;100.00
50065;BME280;64524;47.848;-122.338;2022-11-15T07:11:27;102935.07;;;3.74;100.00
50065;BME280;64524;47.848;-122.338;2022-11-15T07:13:56;102936.31;;;3.73;100.00
50065;BME280;64524;47.848;-122.338;2022-11-15T07:16:24;102938.05;;;3.70;100.00
50065;BME280;64524;47.848;-122.338;2022-11-15T07:18:53;102935.13;;;3.68;100.00
50065;BME280;64524;47.848;-122.338;2022-11-15T07:21:21;102937.02;;;3.68;100.00
50065;BME280;64524;47.848;-122.338;2022-11-15T07:23:54;102939.45;;;3.69;100.00
50065;BME280;64524;47.848;-122.338;2022-11-15T07:26:22;102936.02;;;3.68;100.00
50065;BME280;64524;47.848;-122.338;2022-11-15T07:28:51;102940.20;;;3.67;100.00
50065;BME280;64524;47.848;-122.338;2022-11-15T07:31:19;102945.15;;;3.64;100.00
50065;BME280;64524;47.848;-122.338;2022-11-15T07:33:48;102950.14;;;3.64;100.00
50065;BME280;64524;47.848;-122.338;2022-11-15T07:36:17;102954.91;;;3.67;100.00
50065;BME280;64524;47.848;-122.338;2022-11-15T07:38:45;102956.38;;;3.68;100.00
50065;BME280;64524;47.848;-122.338;2022-11-15T07:41:14;102963.73;;;3.70;100.00
50065;BME280;64524;47.848;-122.338;2022-11-15T07:43:43;102966.34;;;3.73;100.00
50065;BME280;64524;47.848;-122.338;2022-11-15T07:46:12;102965.41;;;3.74;100.00
50065;BME280;64524;47.848;-122.338;2022-11-15T07:48:41;102966.08;;;3.74;100.00
50065;BME280;64524;47.848;-122.338;2022-11-15T07:51:13;102961.73;;;3.73;100.00
50065;BME280;64524;47.848;-122.338;2022-11-15T07:53:43;102964.46;;;3.73;100.00
50065;BME280;64524;47.848;-122.338;2022-11-15T07:56:12;102966.20;;;3.71;100.00
50065;BME280;64524;47.848;-122.338;2022-11-15T07:58:41;102974.05;;;3.69;100.00
50065;BME280;64524;47.848;-122.338;2022-11-15T08:01:10;102970.77;;;3.66;100.00
50065;BME280;64524;47.848;-122.338;2022-11-15T08:03:39;102979.46;;;3.65;100.00
50065;BME280;64524;47.848;-122.338;2022-11-15T08:06:08;102981.02;;;3.63;100.00
50065;BME280;64524;47.848;-122.338;2022-11-15T08:08:37;102981.58;;;3.61;100.00
50065;BME280;64524;47.848;-122.338;2022-11-15T08:11:06;102985.42;;;3.60;100.00
50065;BME280;64524;47.848;-122.338;2022-11-15T08:13:35;102985.89;;;3.59;100.00
50065;BME280;64524;47.848;-122.338;2022-11-15T08:16:04;102986.34;;;3.58;100.00
50065;BME280;64524;47.848;-122.338;2022-11-15T08:18:33;102984.52;;;3.57;100.00
50065;BME280;64524;47.848;-122.338;2022-11-15T08:21:02;102980.60;;;3.55;100.00
50065;BME280;64524;47.848;-122.338;2022-11-15T08:23:31;102979.91;;;3.53;100.00
50065;BME280;64524;47.848;-122.338;2022-11-15T08:26:04;102978.42;;;3.51;100.00
50065;BME280;64524;47.848;-122.338;2022-11-15T08:28:33;102976.86;;;3.51;100.00
50065;BME280;64524;47.848;-122.338;2022-11-15T08:31:02;102974.87;;;3.52;100.00
50065;BME280;64524;47.848;-122.338;2022-11-15T08:33:32;102973.17;;;3.52;100.00
50065;BME280;64524;47.848;-122.338;2022-11-15T08:36:01;102976.64;;;3.53;100.00
50065;BME280;64524;47.848;-122.338;2022-11-15T08:38:30;102975.02;;;3.54;100.00
50065;BME280;64524;47.848;-122.338;2022-11-15T08:41:04;102980.26;;;3.53;100.00
50065;BME280;64524;47.848;-122.338;2022-11-15T08:43:33;102976.86;;;3.51;100.00
50065;BME280;64524;47.848;-122.338;2022-11-15T08:46:03;102980.00;;;3.49;100.00
50065;BME280;64524;47.848;-122.338;2022-11-15T08:48:31;102979.88;;;3.48;100.00
50065;BME280;64524;47.848;-122.338;2022-11-15T08:51:00;102982.28;;;3.48;100.00
50065;BME280;64524;47.848;-122.338;2022-11-15T08:53:29;102976.13;;;3.48;100.00
50065;BME280;64524;47.848;-122.338;2022-11-15T08:55:58;102974.08;;;3.46;100.00
50065;BME280;64524;47.848;-122.338;2022-11-15T08:58:27;102964.52;;;3.44;100.00
50065;BME280;64524;47.848;-122.338;2022-11-15T09:00:57;102965.30;;;3.43;100.00
50065;BME280;64524;47.848;-122.338;2022-11-15T09:03:25;102968.26;;;3.44;100.00
50065;BME280;64524;47.848;-122.338;2022-11-15T09:06:00;102969.71;;;3.47;100.00
50065;BME280;64524;47.848;-122.338;2022-11-15T09:08:32;102967.42;;;3.46;100.00
50065;BME280;64524;47.848;-122.338;2022-11-15T09:11:14;102970.04;;;3.45;100.00
50065;BME280;64524;47.848;-122.338;2022-11-15T09:13:44;102969.91;;;3.43;100.00
50065;BME280;64524;47.848;-122.338;2022-11-15T09:16:13;102973.32;;;3.45;100.00
50065;BME280;64524;47.848;-122.338;2022-11-15T09:18:43;102974.70;;;3.47;100.00
50065;BME280;64524;47.848;-122.338;2022-11-15T09:21:12;102972.05;;;3.49;100.00
50065;BME280;64524;47.848;-122.338;2022-11-15T09:23:41;102976.05;;;3.50;100.00
50065;BME280;64524;47.848;-122.338;2022-11-15T09:26:10;102976.85;;;3.49;100.00
50065;BME280;64524;47.848;-122.338;2022-11-15T09:28:38;102973.14;;;3.45;100.00
50065;BME280;64524;47.848;-122.338;2022-11-15T09:31:09;102974.63;;;3.42;100.00
50065;BME280;64524;47.848;-122.338;2022-11-15T09:33:38;102973.63;;;3.38;100.00
50065;BME280;64524;47.848;-122.338;2022-11-15T09:36:08;102971.02;;;3.33;100.00
50065;BME280;64524;47.848;-122.338;2022-11-15T09:38:37;102969.33;;;3.29;100.00
50065;BME280;64524;47.848;-122.338;2022-11-15T09:46:33;102986.14;;;3.24;100.00
50065;BME280;64524;47.848;-122.338;2022-11-15T09:49:08;102990.88;;;3.21;100.00
50065;BME280;64524;47.848;-122.338;2022-11-15T09:51:43;102997.13;;;3.20;100.00
50065;BME280;64524;47.848;-122.338;2022-11-15T09:54:31;103002.92;;;3.22;100.00
50065;BME280;64524;47.848;-122.338;2022-11-15T10:00:22;103005.20;;;3.19;100.00
50065;BME280;64524;47.848;-122.338;2022-11-15T10:03:18;103006.11;;;3.17;100.00
50065;BME280;64524;47.848;-122.338;2022-11-15T10:05:51;103007.23;;;3.16;100.00
50065;BME280;64524;47.848;-122.338;2022-11-15T10:08:49;103007.21;;;3.14;100.00
50065;BME280;64524;47.848;-122.338;2022-11-15T10:11:26;103008.46;;;3.10;100.00
50065;BME280;64524;47.848;-122.338;2022-11-15T10:14:30;103004.30;;;3.07;100.00
50065;BME280;64524;47.848;-122.338;2022-11-15T10:20:13;103007.61;;;2.97;100.00
50065;BME280;64524;47.848;-122.338;2022-11-15T10:25:20;103015.11;;;2.88;100.00
50065;BME280;64524;47.848;-122.338;2022-11-15T10:30:34;103019.64;;;2.80;100.00
50065;BME280;64524;47.848;-122.338;2022-11-15T10:33:26;103020.17;;;2.76;100.00
50065;BME280;64524;47.848;-122.338;2022-11-15T10:36:22;103026.17;;;2.76;100.00
50065;BME280;64524;47.848;-122.338;2022-11-15T10:38:55;103026.60;;;2.77;100.00
50065;BME280;64524;47.848;-122.338;2022-11-15T10:44:18;103026.61;;;2.79;100.00
50065;BME280;64524;47.848;-122.338;2022-11-15T10:47:34;103032.58;;;2.81;100.00
50065;BME280;64524;47.848;-122.338;2022-11-15T10:49:57;103028.56;;;2.82;100.00
50065;BME280;64524;47.848;-122.338;2022-11-15T10:52:26;103024.30;;;2.83;100.00
50065;BME280;64524;47.848;-122.338;2022-11-15T10:57:32;103020.27;;;2.86;100.00
50065;BME280;64524;47.848;-122.338;2022-11-15T11:02:56;103018.55;;;2.87;100.00
50065;BME280;64524;47.848;-122.338;2022-11-15T11:05:32;103014.45;;;2.88;100.00
50065;BME280;64524;47.848;-122.338;2022-11-15T11:10:55;103010.55;;;2.86;100.00
50065;BME280;64524;47.848;-122.338;2022-11-15T11:13:31;103011.98;;;2.85;100.00
50065;BME280;64524;47.848;-122.338;2022-11-15T11:19:18;103009.81;;;2.83;100.00
50065;BME280;64524;47.848;-122.338;2022-11-15T11:22:05;103008.48;;;2.84;100.00
50065;BME280;64524;47.848;-122.338;2022-11-15T11:24:45;103009.13;;;2.86;100.00
50065;BME280;64524;47.848;-122.338;2022-11-15T11:27:25;103009.56;;;2.89;100.00
50065;BME280;64524;47.848;-122.338;2022-11-15T11:35:32;103015.95;;;2.98;100.00
50065;BME280;64524;47.848;-122.338;2022-11-15T11:43:55;103017.27;;;2.87;100.00
50065;BME280;64524;47.848;-122.338;2022-11-15T11:52:11;103009.30;;;2.77;100.00
50065;BME280;64524;47.848;-122.338;2022-11-15T12:00:04;103015.53;;;2.74;100.00
50065;BME280;64524;47.848;-122.338;2022-11-15T12:06:04;103013.40;;;2.77;100.00
50065;BME280;64524;47.848;-122.338;2022-11-15T12:11:20;103018.98;;;2.78;100.00
50065;BME280;64524;47.848;-122.338;2022-11-15T12:13:58;103015.05;;;2.79;100.00
50065;BME280;64524;47.848;-122.338;2022-11-15T12:16:28;103017.95;;;2.81;100.00
50065;BME280;64524;47.848;-122.338;2022-11-15T12:19:00;103018.37;;;2.81;100.00
50065;BME280;64524;47.848;-122.338;2022-11-15T12:24:34;103023.62;;;2.80;100.00
50065;BME280;64524;47.848;-122.338;2022-11-15T12:29:54;103025.63;;;2.80;100.00
50065;BME280;64524;47.848;-122.338;2022-11-15T12:32:37;103026.90;;;2.81;100.00
50065;BME280;64524;47.848;-122.338;2022-11-15T12:35:24;103029.84;;;2.82;100.00
50065;BME280;64524;47.848;-122.338;2022-11-15T12:37:57;103029.43;;;2.83;100.00
50065;BME280;64524;47.848;-122.338;2022-11-15T12:40:27;103027.97;;;2.84;100.00
50065;BME280;64524;47.848;-122.338;2022-11-15T12:46:04;103031.36;;;2.83;100.00
50065;BME280;64524;47.848;-122.338;2022-11-15T12:51:08;103031.83;;;2.81;100.00
50065;BME280;64524;47.848;-122.338;2022-11-15T12:53:37;103039.17;;;2.82;100.00
50065;BME280;64524;47.848;-122.338;2022-11-15T13:15:33;103054.13;;;2.75;100.00
50065;BME280;64524;47.848;-122.338;2022-11-15T13:20:56;103063.64;;;2.74;100.00
50065;BME280;64524;47.848;-122.338;2022-11-15T13:23:29;103066.82;;;2.75;100.00
50065;BME280;64524;47.848;-122.338;2022-11-15T13:28:49;103070.63;;;2.78;100.00
50065;BME280;64524;47.848;-122.338;2022-11-15T13:31:27;103069.16;;;2.79;100.00
50065;BME280;64524;47.848;-122.338;2022-11-15T13:34:13;103070.23;;;2.79;100.00
50065;BME280;64524;47.848;-122.338;2022-11-15T13:37:12;103072.86;;;2.78;100.00
50065;BME280;64524;47.848;-122.338;2022-11-15T13:40:20;103077.27;;;2.75;100.00
50065;BME280;64524;47.848;-122.338;2022-11-15T13:42:50;103080.10;;;2.72;100.00
50065;BME280;64524;47.848;-122.338;2022-11-15T13:45:19;103080.60;;;2.69;100.00
50065;BME280;64524;47.848;-122.338;2022-11-15T13:47:57;103087.27;;;2.67;100.00
50065;BME280;64524;47.848;-122.338;2022-11-15T13:50:32;103085.60;;;2.64;100.00
50065;BME280;64524;47.848;-122.338;2022-11-15T13:53:03;103080.82;;;2.60;100.00
50065;BME280;64524;47.848;-122.338;2022-11-15T13:55:33;103086.53;;;2.59;100.00
50065;BME280;64524;47.848;-122.338;2022-11-15T13:58:03;103085.06;;;2.57;100.00
50065;BME280;64524;47.848;-122.338;2022-11-15T14:00:42;103083.84;;;2.57;100.00
50065;BME280;64524;47.848;-122.338;2022-11-15T14:08:35;103089.11;;;2.52;100.00
50065;BME280;64524;47.848;-122.338;2022-11-15T14:11:18;103086.10;;;2.51;100.00
50065;BME280;64524;47.848;-122.338;2022-11-15T14:14:12;103087.41;;;2.53;100.00
50065;BME280;64524;47.848;-122.338;2022-11-15T14:16:45;103090.42;;;2.54;100.00
50065;BME280;64524;47.848;-122.338;2022-11-15T14:22:07;103089.60;;;2.54;100.00
50065;BME280;64524;47.848;-122.338;2022-11-15T14:24:37;103092.40;;;2.55;100.00
50065;BME280;64524;47.848;-122.338;2022-11-15T14:29:49;103095.09;;;2.52;100.00
50065;BME280;64524;47.848;-122.338;2022-11-15T14:32:26;103096.15;;;2.50;100.00
50065;BME280;64524;47.848;-122.338;2022-11-15T14:35:02;103098.37;;;2.50;100.00
50065;BME280;64524;47.848;-122.338;2022-11-15T14:37:33;103102.05;;;2.52;100.00
50065;BME280;64524;47.848;-122.338;2022-11-15T14:40:04;103101.44;;;2.53;100.00
50065;BME280;64524;47.848;-122.338;2022-11-15T14:42:33;103103.73;;;2.51;100.00
50065;BME280;64524;47.848;-122.338;2022-11-15T14:45:02;103108.48;;;2.51;100.00
50065;BME280;64524;47.848;-122.338;2022-11-15T14:47:31;103110.19;;;2.49;100.00
50065;BME280;64524;47.848;-122.338;2022-11-15T14:50:00;103109.33;;;2.48;100.00
50065;BME280;64524;47.848;-122.338;2022-11-15T14:52:31;103108.48;;;2.51;100.00
50065;BME280;64524;47.848;-122.338;2022-11-15T14:55:22;103110.88;;;2.53;100.00
50065;BME280;64524;47.848;-122.338;2022-11-15T14:57:52;103109.45;;;2.54;100.00
50065;BME280;64524;47.848;-122.338;2022-11-15T15:00:21;103108.64;;;2.57;100.00
50065;BME280;64524;47.848;-122.338;2022-11-15T15:02:52;103108.55;;;2.60;100.00
50065;BME280;64524;47.848;-122.338;2022-11-15T15:08:01;103111.00;;;2.61;100.00